Time;durP1;ratioP1;P1;durP2;ratioP2;P2;SDS_P1;SDS_P2;PMS_P1;PMS_P2;Temp;Humidity;BMP_temperature;BMP_pressure;BME280_temperature;BME280_humidity;BME280_pressure;Samples;Min_cycle;Max_cycle;Signal;HPM_P1;HPM_P2
2022/08/17 00:01:51;;;;;;;1999.90;999.90;;;;;;;22.49;46.98;94908.97;4988154;28;20165;-72
2022/08/17 00:04:18;;;;;;;1999.90;999.90;;;;;;;22.55;47.11;94919.06;4988827;28;20044;-72
2022/08/17 00:06:43;;;;;;;1999.90;999.90;;;;;;;22.40;47.07;94884.19;4989827;28;20802;-70
2022/08/17 00:09:09;;;;;;;1999.90;999.90;;;;;;;22.44;47.22;94901.22;4991496;28;20034;-71
2022/08/17 00:11:38;;;;;;;1999.90;999.90;;;;;;;22.43;47.22;94899.69;4992868;28;20098;-72
2022/08/17 00:14:12;;;;;;;1999.90;999.90;;;;;;;22.46;47.12;94894.25;4990470;28;20846;-72
2022/08/17 00:16:45;;;;;;;1999.90;999.90;;;;;;;22.43;47.74;94902.41;4985025;28;20042;-72
2022/08/17 00:19:14;;;;;;;1999.90;999.90;;;;;;;22.31;47.78;94879.91;4992434;28;20034;-72
2022/08/17 00:21:43;;;;;;;1999.90;999.90;;;;;;;22.40;47.75;94895.03;4992536;28;20037;-72
2022/08/17 00:24:09;;;;;;;1999.90;999.90;;;;;;;22.33;47.88;94884.19;4991557;28;20382;-72
2022/08/17 00:26:34;;;;;;;1999.90;999.90;;;;;;;22.31;47.76;94884.56;4991083;28;20034;-71
2022/08/17 00:29:01;;;;;;;1999.90;999.90;;;;;;;22.27;47.90;94876.44;4991994;28;20037;-71
2022/08/17 00:31:26;;;;;;;1999.90;999.90;;;;;;;22.36;47.98;94895.03;4990236;28;20023;-74
2022/08/17 00:33:52;;;;;;;1999.90;999.90;;;;;;;22.29;48.15;94878.75;4992498;28;20096;-71
2022/08/17 00:36:18;;;;;;;1999.90;999.90;;;;;;;22.23;48.10;94875.66;4990435;28;20037;-71
2022/08/17 00:38:44;;;;;;;1999.90;999.90;;;;;;;22.29;47.92;94886.88;4992600;28;20066;-71
2022/08/17 00:41:12;;;;;;;1999.90;999.90;;;;;;;22.24;48.18;94879.13;4987583;28;20058;-71
2022/08/17 00:43:44;;;;;;;1999.90;999.90;;;;;;;22.25;48.24;94886.88;4978793;28;20080;-71
2022/08/17 00:46:20;;;;;;;1999.90;999.90;;;;;;;22.21;48.42;94882.59;4990424;28;20034;-71
2022/08/17 00:48:46;;;;;;;1999.90;999.90;;;;;;;22.18;48.47;94876.03;4991234;28;20034;-71
2022/08/17 00:51:17;;;;;;;1999.90;999.90;;;;;;;22.24;48.42;94884.56;4991592;28;20088;-71
2022/08/17 00:53:48;;;;;;;1999.90;999.90;;;;;;;22.18;48.42;94872.56;4990978;28;20034;-72
2022/08/17 00:56:21;;;;;;;1999.90;999.90;;;;;;;22.09;48.65;94864.75;4989771;28;20027;-71
2022/08/17 00:58:48;;;;;;;1999.90;999.90;;;;;;;22.04;48.56;94855.06;4992239;28;20038;-72
2022/08/17 01:01:14;;;;;;;1999.90;999.90;;;;;;;21.99;48.58;94862.81;4989684;28;20084;-71
2022/08/17 01:03:42;;;;;;;1999.90;999.90;;;;;;;21.98;48.69;94862.03;4988837;28;20050;-72
2022/08/17 01:06:09;;;;;;;1999.90;999.90;;;;;;;21.95;49.01;94859.31;4990388;28;20065;-71
2022/08/17 01:08:35;;;;;;;1999.90;999.90;;;;;;;21.94;48.95;94866.66;4988742;28;20030;-73
2022/08/17 01:11:01;;;;;;;1999.90;999.90;;;;;;;21.97;49.08;94870.56;4989041;28;20117;-72
2022/08/17 01:13:29;;;;;;;1999.90;999.90;;;;;;;21.89;48.98;94853.50;4990639;28;20113;-72
2022/08/17 01:16:03;;;;;;;1999.90;999.90;;;;;;;21.95;49.10;94870.13;4989799;28;20041;-71
2022/08/17 01:18:30;;;;;;;1999.90;999.90;;;;;;;21.91;49.17;94867.44;4989574;28;20030;-71
2022/08/17 01:21:00;;;;;;;1999.90;999.90;;;;;;;21.92;49.31;94874.41;4989939;28;20022;-71
2022/08/17 01:23:27;;;;;;;1999.90;999.90;;;;;;;21.84;49.23;94856.56;4989772;28;20022;-72
2022/08/17 01:25:58;;;;;;;1999.90;999.90;;;;;;;21.97;49.30;94868.63;4991003;28;20183;-71
2022/08/17 01:28:27;;;;;;;1999.90;999.90;;;;;;;22.00;49.15;94872.47;4989211;28;20084;-71
2022/08/17 01:30:54;;;;;;;1999.90;999.90;;;;;;;22.00;48.99;94873.25;4989864;28;20088;-72
2022/08/17 01:33:19;;;;;;;1999.90;999.90;;;;;;;21.75;49.43;94848.84;4988722;28;20083;-72
2022/08/17 01:35:44;;;;;;;1999.90;999.90;;;;;;;21.85;49.91;94881.72;4989451;28;20183;-71
2022/08/17 01:38:10;;;;;;;1999.90;999.90;;;;;;;21.73;49.60;94855.78;4990364;28;20368;-72
2022/08/17 01:40:38;;;;;;;1999.90;999.90;;;;;;;21.85;49.89;94884.41;4991363;28;20034;-71
2022/08/17 01:43:14;;;;;;;1999.90;999.90;;;;;;;21.80;49.90;94880.94;4991070;28;20030;-67
2022/08/17 01:45:44;;;;;;;1999.90;999.90;;;;;;;21.72;50.28;94873.19;5000052;28;20514;-66
2022/08/17 01:48:10;;;;;;;1999.90;999.90;;;;;;;21.71;50.28;94871.63;4989390;28;20494;-68
2022/08/17 01:50:38;;;;;;;1999.90;999.90;;;;;;;21.67;49.99;94866.19;4990366;28;20033;-68
2022/08/17 01:53:08;;;;;;;1999.90;999.90;;;;;;;21.73;50.30;94863.91;4989051;28;20030;-67
2022/08/17 01:55:44;;;;;;;1999.90;999.90;;;;;;;21.72;50.30;94860.41;4988632;28;20659;-68
2022/08/17 01:58:10;;;;;;;1999.90;999.90;;;;;;;21.77;50.19;94870.09;4988961;28;20054;-68
2022/08/17 02:00:38;;;;;;;1999.90;999.90;;;;;;;21.75;50.17;94856.97;4990098;28;20053;-67
2022/08/17 02:03:03;;;;;;;1999.90;999.90;;;;;;;21.67;50.21;94849.97;4990082;28;20061;-67
2022/08/17 02:05:29;;;;;;;1999.90;999.90;;;;;;;21.77;50.09;94865.47;4990223;28;20057;-68
2022/08/17 02:07:54;;;;;;;1999.90;999.90;;;;;;;21.71;50.06;94858.88;4987923;28;20030;-68
2022/08/17 02:10:19;;;;;;;1999.90;999.90;;;;;;;21.53;50.73;94866.13;4979103;28;20046;-68
2022/08/17 02:12:44;;;;;;;1999.90;999.90;;;;;;;21.10;51.48;94862.44;4989484;28;20027;-67
2022/08/17 02:15:13;;;;;;;1999.90;999.90;;;;;;;21.19;51.55;94876.38;4987129;28;20428;-68
2022/08/17 02:17:39;;;;;;;1999.90;999.90;;;;;;;21.13;51.58;94872.47;4990237;28;20113;-68
2022/08/17 02:20:07;;;;;;;1999.90;999.90;;;;;;;21.43;51.04;94873.06;4989347;28;20027;-68
2022/08/17 02:22:35;;;;;;;1999.90;999.90;;;;;;;21.50;50.81;94866.91;4989224;28;20476;-68
2022/08/17 02:25:03;;;;;;;1999.90;999.90;;;;;;;21.58;50.57;94860.34;4989304;28;20033;-68
2022/08/17 02:27:28;;;;;;;1999.90;999.90;;;;;;;21.38;50.56;94830.13;4990403;28;20026;-68
2022/08/17 02:29:53;;;;;;;1999.90;999.90;;;;;;;21.53;50.44;94850.69;4988117;28;20022;-68
2022/08/17 02:32:21;;;;;;;1999.90;999.90;;;;;;;21.61;50.54;94856.91;4988881;28;20026;-68
2022/08/17 02:34:47;;;;;;;1999.90;999.90;;;;;;;21.61;50.57;94845.31;4989083;28;20125;-68
2022/08/17 02:37:16;;;;;;;1999.90;999.90;;;;;;;21.45;50.94;94842.94;4990587;28;20070;-68
2022/08/17 02:39:43;;;;;;;1999.90;999.90;;;;;;;21.36;51.32;94851.38;4988123;28;20038;-68
2022/08/17 02:42:08;;;;;;;1999.90;999.90;;;;;;;21.28;51.14;94842.41;4987883;28;20031;-67
2022/08/17 02:44:34;;;;;;;1999.90;999.90;;;;;;;21.26;51.30;94847.44;4988697;28;20085;-68
2022/08/17 02:47:00;;;;;;;1999.90;999.90;;;;;;;21.13;51.36;94827.28;4987879;28;20403;-68
2022/08/17 02:49:25;;;;;;;1999.90;999.90;;;;;;;21.13;51.86;94843.50;4988549;28;20030;-68
2022/08/17 02:51:50;;;;;;;1999.90;999.90;;;;;;;21.08;51.69;94833.03;4990352;28;20434;-68
2022/08/17 02:54:16;;;;;;;1999.90;999.90;;;;;;;21.09;51.93;94837.31;4988276;28;20513;-68
2022/08/17 02:56:41;;;;;;;1999.90;999.90;;;;;;;20.91;52.12;94820.97;4989088;28;20499;-68
2022/08/17 02:59:07;;;;;;;1999.90;999.90;;;;;;;20.94;52.02;94814.81;4989462;28;20467;-68
2022/08/17 03:01:33;;;;;;;1999.90;999.90;;;;;;;20.98;52.08;94821.00;4988430;28;20034;-68
2022/08/17 03:03:59;;;;;;;1999.90;999.90;;;;;;;20.94;52.03;94811.34;4987593;28;20109;-68
2022/08/17 03:06:24;;;;;;;1999.90;999.90;;;;;;;20.94;52.11;94808.66;4990122;28;20173;-68
2022/08/17 03:08:51;;;;;;;1999.90;999.90;;;;;;;20.92;52.28;94808.22;4987477;28;20027;-68
2022/08/17 03:11:16;;;;;;;1999.90;999.90;;;;;;;20.96;51.89;94822.56;4989116;28;20031;-68
2022/08/17 03:13:41;;;;;;;1999.90;999.90;;;;;;;20.85;51.89;94800.88;4989620;28;20034;-68
2022/08/17 03:16:07;;;;;;;1999.90;999.90;;;;;;;20.93;51.67;94809.78;4986070;28;20031;-68
2022/08/17 03:18:33;;;;;;;1999.90;999.90;;;;;;;21.06;51.73;94819.13;4990047;28;20037;-68
2022/08/17 03:21:00;;;;;;;1999.90;999.90;;;;;;;21.07;51.73;94819.91;4989292;28;20026;-67
2022/08/17 03:23:27;;;;;;;1999.90;999.90;;;;;;;21.05;51.40;94820.28;4989515;28;20023;-69
2022/08/17 03:25:53;;;;;;;1999.90;999.90;;;;;;;20.99;51.64;94813.69;4988459;28;20041;-68
2022/08/17 03:28:19;;;;;;;1999.90;999.90;;;;;;;21.03;52.02;94815.25;4989903;28;20053;-67
2022/08/17 03:30:45;;;;;;;1999.90;999.90;;;;;;;21.05;51.55;94817.59;4988124;28;20038;-68
2022/08/17 03:33:10;;;;;;;1999.90;999.90;;;;;;;21.06;51.64;94829.19;4989572;28;20022;-68
2022/08/17 03:35:39;;;;;;;1999.90;999.90;;;;;;;21.01;51.87;94824.91;4987744;28;20038;-67
2022/08/17 03:38:05;;;;;;;1999.90;999.90;;;;;;;20.97;51.84;94834.91;4988631;28;20023;-68
2022/08/17 03:40:31;;;;;;;1999.90;999.90;;;;;;;21.02;51.59;94840.72;4989003;28;20036;-68
2022/08/17 03:43:02;;;;;;;1999.90;999.90;;;;;;;21.08;51.52;94840.38;4991733;28;20105;-72
2022/08/17 03:56:42;;;;;;;1999.90;999.90;;;;;;;20.90;51.38;94843.00;4992768;28;20513;-73
2022/08/17 03:59:11;;;;;;;1999.90;999.90;;;;;;;20.82;51.52;94836.75;4993300;28;20030;-76
2022/08/17 04:01:37;;;;;;;1999.90;999.90;;;;;;;20.84;51.59;94836.41;4986705;28;20117;-74
2022/08/17 04:04:03;;;;;;;1999.90;999.90;;;;;;;20.85;51.57;94843.34;4993366;28;20101;-74
2022/08/17 04:06:29;;;;;;;1999.90;999.90;;;;;;;20.86;51.51;94845.66;4990903;28;20483;-72
2022/08/17 04:08:54;;;;;;;1999.90;999.90;;;;;;;20.76;51.37;94839.03;4992028;28;20038;-71
2022/08/17 04:11:19;;;;;;;1999.90;999.90;;;;;;;20.79;51.35;94834.03;4990892;28;20068;-73
2022/08/17 04:13:45;;;;;;;1999.90;999.90;;;;;;;20.85;51.38;94846.81;4993156;28;20038;-71
2022/08/17 04:16:10;;;;;;;1999.90;999.90;;;;;;;20.78;51.55;94833.28;4990792;28;20023;-73
2022/08/17 04:18:35;;;;;;;1999.90;999.90;;;;;;;20.82;51.47;94838.69;4992270;28;20725;-71
2022/08/17 04:21:01;;;;;;;1999.90;999.90;;;;;;;20.88;51.49;94854.19;4993346;28;20026;-71
2022/08/17 04:23:31;;;;;;;1999.90;999.90;;;;;;;20.85;51.49;94832.53;4991940;28;20152;-70
2022/08/17 04:25:56;;;;;;;1999.90;999.90;;;;;;;20.87;51.73;94830.22;4989622;28;20694;-77
2022/08/17 04:28:22;;;;;;;1999.90;999.90;;;;;;;20.90;51.50;94829.47;4993012;28;20048;-75
2022/08/17 04:30:47;;;;;;;1999.90;999.90;;;;;;;20.87;51.49;94831.00;4991070;28;20034;-75
2022/08/17 04:33:16;;;;;;;1999.90;999.90;;;;;;;20.95;51.29;94832.59;4990891;28;20040;-75
2022/08/17 04:35:45;;;;;;;1999.90;999.90;;;;;;;20.88;51.32;94821.75;4976660;28;20030;-75
2022/08/17 04:38:17;;;;;;;1999.90;999.90;;;;;;;20.98;51.16;94826.41;4980681;28;20041;-74
2022/08/17 04:43:29;;;;;;;1999.90;999.90;;;;;;;21.32;50.78;94825.47;4992026;28;20541;-77
2022/08/17 04:46:00;;;;;;;1999.90;999.90;;;;;;;21.44;50.51;94830.53;4990211;28;20049;-75
2022/08/17 04:48:47;;;;;;;1999.90;999.90;;;;;;;21.65;50.19;94827.91;4991545;28;20138;-75
2022/08/17 04:51:16;;;;;;;1999.90;999.90;;;;;;;21.79;49.65;94824.47;4990799;28;20033;-76
2022/08/17 04:53:44;;;;;;;1999.90;999.90;;;;;;;21.92;49.18;94830.31;4990718;28;20049;-75
2022/08/17 04:56:14;;;;;;;1999.90;999.90;;;;;;;22.06;48.68;94817.56;4991318;28;20206;-74
2022/08/17 04:58:39;;;;;;;1999.90;999.90;;;;;;;22.20;48.22;94816.81;4991962;28;20027;-75
2022/08/17 05:01:05;;;;;;;1999.90;999.90;;;;;;;22.27;47.79;94813.34;4990866;28;20037;-75
2022/08/17 05:03:31;;;;;;;1999.90;999.90;;;;;;;22.51;47.17;94828.81;4991460;28;20113;-75
2022/08/17 05:05:56;;;;;;;1999.90;999.90;;;;;;;22.64;46.97;94828.44;4990480;28;20062;-76
2022/08/17 05:08:22;;;;;;;1999.90;999.90;;;;;;;22.81;46.93;94835.78;4991761;28;20117;-74
2022/08/17 05:10:48;;;;;;;1999.90;999.90;;;;;;;22.93;46.32;94840.84;4992424;28;20078;-75
2022/08/17 05:13:16;;;;;;;1999.90;999.90;;;;;;;23.07;46.16;94840.78;4991427;28;20534;-75
2022/08/17 05:15:43;;;;;;;1999.90;999.90;;;;;;;23.16;45.81;94848.53;4991388;28;20534;-75
2022/08/17 05:18:09;;;;;;;1999.90;999.90;;;;;;;23.27;45.54;94843.06;4990595;28;20034;-75
2022/08/17 05:20:36;;;;;;;1999.90;999.90;;;;;;;23.26;45.36;94842.31;4992038;28;20030;-76
2022/08/17 05:23:07;;;;;;;1999.90;999.90;;;;;;;23.28;45.45;94837.25;4990502;28;20494;-75
2022/08/17 05:25:39;;;;;;;1999.90;999.90;;;;;;;23.35;45.42;94842.66;4992362;28;20033;-75
2022/08/17 05:28:07;;;;;;;1999.90;999.90;;;;;;;23.32;45.24;94842.66;4992294;28;20034;-75
2022/08/17 05:30:34;;;;;;;1999.90;999.90;;;;;;;23.36;44.88;94846.16;4989568;28;20030;-76
2022/08/17 05:33:05;;;;;;;1999.90;999.90;;;;;;;23.18;45.15;94846.19;4990211;28;20454;-75
2022/08/17 05:35:33;;;;;;;1999.90;999.90;;;;;;;23.35;45.06;94853.53;4990874;28;20030;-75
2022/08/17 05:37:59;;;;;;;1999.90;999.90;;;;;;;23.27;44.84;94851.97;4990189;28;20117;-75
2022/08/17 05:40:24;;;;;;;1999.90;999.90;;;;;;;22.03;47.71;94850.81;4990629;28;20026;-76
2022/08/17 05:43:01;;;;;;;1999.90;999.90;;;;;;;21.83;48.30;94841.50;4991594;28;20113;-76
2022/08/17 05:45:27;;;;;;;1999.90;999.90;;;;;;;22.15;47.89;94860.53;4989319;28;20032;-75
2022/08/17 05:47:52;;;;;;;1999.90;999.90;;;;;;;22.42;47.23;94850.13;4998334;28;20030;-76
2022/08/17 05:50:26;;;;;;;1999.90;999.90;;;;;;;22.94;46.34;94844.31;4996709;28;20113;-75
2022/08/17 05:52:58;;;;;;;1999.90;999.90;;;;;;;23.25;45.83;94851.63;4991166;28;20035;-75
2022/08/17 05:55:42;;;;;;;1999.90;999.90;;;;;;;23.51;45.49;94855.78;4990708;28;20037;-76
2022/08/17 05:58:27;;;;;;;1999.90;999.90;;;;;;;23.70;45.06;94862.72;4991532;28;20038;-75
2022/08/17 06:01:10;;;;;;;1999.90;999.90;;;;;;;23.91;44.79;94858.38;4989393;28;20081;-73
2022/08/17 06:03:48;;;;;;;1999.90;999.90;;;;;;;24.04;44.35;94859.44;4989077;28;20023;-73
2022/08/17 06:06:39;;;;;;;1999.90;999.90;;;;;;;24.18;43.93;94862.06;4989531;28;20031;-73
2022/08/17 06:09:32;;;;;;;1999.90;999.90;;;;;;;24.11;43.38;94862.13;4990336;28;20383;-73
2022/08/17 06:12:35;;;;;;;1999.90;999.90;;;;;;;24.30;42.84;94858.88;4987178;28;20030;-73
2022/08/17 06:15:06;;;;;;;1999.90;999.90;;;;;;;24.48;42.87;94875.13;4984800;28;20026;-70
2022/08/17 06:17:32;;;;;;;1999.90;999.90;;;;;;;24.61;42.40;94878.13;4989716;28;20022;-70
2022/08/17 06:20:04;;;;;;;1999.90;999.90;;;;;;;24.56;42.46;94868.44;4988194;28;20048;-70
2022/08/17 06:22:33;;;;;;;1999.90;999.90;;;;;;;24.83;41.72;94868.63;4986634;28;20022;-70
2022/08/17 06:25:11;;;;;;;1999.90;999.90;;;;;;;24.97;41.52;94856.81;4987972;28;20081;-71
2022/08/17 06:27:46;;;;;;;1999.90;999.90;;;;;;;24.74;40.94;94868.31;4984536;28;20676;-70
2022/08/17 06:30:16;;;;;;;1999.90;999.90;;;;;;;24.57;42.23;94880.88;4985633;28;20537;-71
2022/08/17 06:32:44;;;;;;;1999.90;999.90;;;;;;;24.82;42.57;94888.81;4990200;28;20033;-71
2022/08/17 06:35:14;;;;;;;1999.90;999.90;;;;;;;25.01;42.22;94879.34;4990263;28;20030;-71
2022/08/17 06:37:51;;;;;;;1999.90;999.90;;;;;;;25.38;41.67;94886.75;4989960;28;20042;-71
2022/08/17 06:40:35;;;;;;;1999.90;999.90;;;;;;;25.54;41.13;94880.78;4974922;28;20420;-71
2022/08/17 06:43:25;;;;;;;1999.90;999.90;;;;;;;25.50;40.70;94887.44;4986284;28;20030;-71
2022/08/17 06:46:05;;;;;;;1999.90;999.90;;;;;;;24.89;41.86;94891.50;4990142;28;20117;-71
2022/08/17 06:48:49;;;;;;;1999.90;999.90;;;;;;;25.09;41.52;94897.19;4990394;28;20484;-71
2022/08/17 06:51:26;;;;;;;1999.90;999.90;;;;;;;25.05;41.73;94896.41;4988630;28;20475;-71
2022/08/17 06:53:58;;;;;;;1999.90;999.90;;;;;;;24.72;42.90;94899.78;4989950;28;20072;-70
2022/08/17 06:56:46;;;;;;;;;;;;;;;24.68;42.69;94908.00;4989619;28;20026;-71
2022/08/17 06:59:17;;;;;;;1999.90;999.90;;;;;;;24.76;43.29;94901.31;4991585;28;20393;-71
2022/08/17 07:01:46;;;;;;;1999.90;999.90;;;;;;;24.17;44.31;94904.03;4990161;28;20030;-71
2022/08/17 07:04:16;;;;;;;1999.90;999.90;;;;;;;24.69;43.51;94906.81;4989657;28;20050;-70
2022/08/17 07:06:59;;;;;;;1999.90;999.90;;;;;;;25.25;41.80;94918.41;4988973;28;20590;-70
2022/08/17 07:09:36;;;;;;;1999.90;999.90;;;;;;;25.02;41.82;94912.75;5002205;28;20037;-71
2022/08/17 07:12:13;;;;;;;1999.90;999.90;;;;;;;25.00;42.06;94931.44;4974564;28;20049;-70
2022/08/17 07:14:51;;;;;;;1999.90;999.90;;;;;;;25.11;41.61;94932.16;4988886;28;20018;-70
2022/08/17 07:17:19;;;;;;;1999.90;999.90;;;;;;;24.95;41.88;94935.38;4991970;28;20022;-70
2022/08/17 07:19:47;;;;;;;1999.90;999.90;;;;;;;25.75;40.60;94920.66;4992945;28;20022;-71
2022/08/17 07:22:29;;;;;;;1999.90;999.90;;;;;;;25.41;41.28;94924.06;4993402;28;20113;-71
2022/08/17 07:25:01;;;;;;;1999.90;999.90;;;;;;;25.78;40.38;94924.50;4997660;28;20057;-71
2022/08/17 07:27:31;;;;;;;1999.90;999.90;;;;;;;26.29;39.35;94928.13;4989903;28;20047;-72
2022/08/17 07:30:05;;;;;;;1999.90;999.90;;;;;;;26.61;39.23;94936.66;4992672;28;20032;-70
2022/08/17 07:32:49;;;;;;;1999.90;999.90;;;;;;;26.58;39.13;94939.47;4991028;28;20431;-72
2022/08/17 07:35:17;;;;;;;1999.90;999.90;;;;;;;26.31;39.29;94944.84;5008517;28;20026;-71
2022/08/17 07:38:09;;;;;;;1999.90;999.90;;;;;;;26.32;39.39;94951.88;4991649;28;20045;-76
2022/08/17 07:40:56;;;;;;;1999.90;999.90;;;;;;;25.92;40.41;94946.13;5000904;28;20034;-71
2022/08/17 07:43:34;;;;;;;1999.90;999.90;;;;;;;25.77;40.46;94956.41;4995364;28;20027;-73
2022/08/17 07:49:30;;;;;;;1999.90;999.90;;;;;;;25.70;40.40;94964.66;4953949;28;20038;-74
2022/08/17 07:52:03;;;;;;;1999.90;999.90;;;;;;;25.78;40.39;94946.28;4982960;28;20125;-75
2022/08/17 07:54:32;;;;;;;1999.90;999.90;;;;;;;25.97;40.38;94953.84;4991825;28;20061;-76
2022/08/17 07:57:23;;;;;;;1999.90;999.90;;;;;;;25.62;40.85;94955.75;4991722;28;20117;-70
2022/08/17 08:00:01;;;;;;;1999.90;999.90;;;;;;;26.42;39.86;94953.72;4990241;28;20029;-76
2022/08/17 08:02:37;;;;;;;1999.90;999.90;;;;;;;26.69;38.63;94961.91;4994356;28;20518;-77
2022/08/17 08:05:14;;;;;;;1999.90;999.90;;;;;;;26.41;39.75;94965.75;4994749;28;20383;-77
2022/08/17 08:08:15;;;;;;;1999.90;999.90;;;;;;;26.18;40.68;94958.28;4992339;28;20042;-71
2022/08/17 08:10:42;;;;;;;1999.90;999.90;;;;;;;26.78;39.37;94951.25;4988566;28;20038;-78
2022/08/17 08:13:13;;;;;;;1999.90;999.90;;;;;;;26.59;39.83;94962.81;4993031;28;20454;-78
2022/08/17 08:15:47;;;;;;;1999.90;999.90;;;;;;;26.97;39.03;94947.03;4994067;28;20108;-77
2022/08/17 08:18:45;;;;;;;1999.90;999.90;;;;;;;26.50;40.36;94946.19;4995097;28;20031;-77
2022/08/17 08:21:20;;;;;;;1999.90;999.90;;;;;;;26.66;40.24;94955.28;4985876;28;20031;-76
2022/08/17 08:24:10;;;;;;;1999.90;999.90;;;;;;;27.13;39.19;94958.13;4994022;28;20054;-78
2022/08/17 08:26:47;;;;;;;1999.90;999.90;;;;;;;27.65;38.54;94941.22;4993410;28;20146;-77
2022/08/17 08:29:22;;;;;;;1999.90;999.90;;;;;;;27.32;38.96;94945.69;4992630;28;20030;-78
2022/08/17 08:32:06;;;;;;;1999.90;999.90;;;;;;;27.72;38.29;94937.59;4992359;28;20034;-78
2022/08/17 08:34:45;;;;;;;1999.90;999.90;;;;;;;27.28;39.10;94950.47;4992954;28;20027;-77
2022/08/17 08:37:32;;;;;;;1999.90;999.90;;;;;;;27.00;39.18;94946.22;4994108;28;20023;-77
2022/08/17 08:40:19;;;;;;;1999.90;999.90;;;;;;;27.75;37.75;94938.75;4973700;28;20557;-76
2022/08/17 08:43:13;;;;;;;1999.90;999.90;;;;;;;27.43;38.29;94937.31;4982369;28;20062;-77
2022/08/17 08:45:55;;;;;;;1999.90;999.90;;;;;;;27.62;38.12;94938.53;4995329;28;20045;-79
2022/08/17 08:48:24;;;;;;;;;;;;;;;27.63;38.50;94937.34;5013098;28;20032;-76
2022/08/17 08:51:10;;;;;;;1999.90;999.90;;;;;;;28.38;37.01;94933.94;4992031;28;19917;-77
2022/08/17 08:53:54;;;;;;;1999.90;999.90;;;;;;;28.75;36.21;94931.94;4992536;28;20029;-78
2022/08/17 08:56:50;;;;;;;1999.90;999.90;;;;;;;28.66;35.70;94926.28;4992281;28;20101;-77
2022/08/17 08:59:31;;;;;;;1999.90;999.90;;;;;;;29.01;35.79;94919.22;4986590;28;20072;-76
2022/08/17 09:02:05;;;;;;;1999.90;999.90;;;;;;;29.01;35.47;94920.00;4978662;28;20034;-77
2022/08/17 09:05:02;;;;;;;1999.90;999.90;;;;;;;28.85;35.73;94925.44;4984820;28;20068;-78
2022/08/17 09:07:57;;;;;;;1999.90;999.90;;;;;;;28.29;36.34;94932.94;4990388;28;20036;-77
2022/08/17 09:10:37;;;;;;;1999.90;999.90;;;;;;;28.06;36.94;94934.59;4991531;28;20030;-78
2022/08/17 09:13:12;;;;;;;1999.90;999.90;;;;;;;28.14;36.28;94938.72;4990076;28;20044;-77
2022/08/17 09:15:47;;;;;;;1999.90;999.90;;;;;;;28.26;35.66;94942.00;4991263;28;20188;-77
2022/08/17 09:18:22;;;;;;;1999.90;999.90;;;;;;;28.86;34.86;94932.47;4991645;28;20447;-77
2022/08/17 09:21:00;;;;;;;1999.90;999.90;;;;;;;29.35;34.51;94940.69;4991556;28;20118;-80
2022/08/17 09:23:35;;;;;;;1999.90;999.90;;;;;;;28.95;34.72;94945.59;4999834;28;20041;-77
2022/08/17 09:26:21;;;;;;;1999.90;999.90;;;;;;;29.21;34.46;94924.59;4993046;28;20109;-75
2022/08/17 09:28:50;;;;;;;1999.90;999.90;;;;;;;28.91;34.33;94917.50;4990873;28;20031;-76
2022/08/17 09:31:22;;;;;;;1999.90;999.90;;;;;;;29.40;33.40;94921.00;4991345;28;20482;-75
2022/08/17 09:33:50;;;;;;;1999.90;999.90;;;;;;;29.55;33.41;94929.63;4984750;28;20034;-76
2022/08/17 09:36:34;;;;;;;1999.90;999.90;;;;;;;29.15;34.61;94929.06;4990462;28;20026;-76
2022/08/17 09:39:04;;;;;;;1999.90;999.90;;;;;;;29.82;33.31;94940.25;4990600;28;20026;-75
2022/08/17 09:41:44;;;;;;;1999.90;999.90;;;;;;;30.20;32.72;94932.19;4990576;28;20395;-75
2022/08/17 09:44:29;;;;;;;1999.90;999.90;;;;;;;30.60;32.33;94933.75;4997620;28;20031;-76
2022/08/17 09:47:05;;;;;;;1999.90;999.90;;;;;;;29.96;32.95;94922.66;4985155;28;20603;-76
2022/08/17 09:49:44;;;;;;;1999.90;999.90;;;;;;;30.72;31.90;94927.53;4986726;28;20058;-76
2022/08/17 09:52:18;;;;;;;1999.90;999.90;;;;;;;31.17;31.42;94930.00;4988811;28;20030;-75
2022/08/17 09:54:44;;;;;;;1999.90;999.90;;;;;;;31.47;30.84;94920.38;4987724;28;20035;-77
2022/08/17 09:57:21;;;;;;;1999.90;999.90;;;;;;;31.66;30.11;94928.78;4987621;28;20535;-76
2022/08/17 10:00:14;;;;;;;1999.90;999.90;;;;;;;31.75;30.07;94928.84;5004066;28;20035;-76
2022/08/17 10:03:01;;;;;;;1999.90;999.90;;;;;;;31.37;30.55;94927.00;4984284;28;20027;-75
2022/08/17 10:05:56;;;;;;;1999.90;999.90;;;;;;;30.27;32.36;94936.69;4999959;28;20422;-76
2022/08/17 10:08:35;;;;;;;1999.90;999.90;;;;;;;30.43;31.69;94946.81;4985834;28;20085;-75
2022/08/17 10:12:14;;;;;;;1999.90;999.90;;;;;;;29.70;32.89;94941.00;4987433;28;20896;-76
2022/08/17 10:14:16;;;;;;;1999.90;999.90;;;;;;;30.67;31.32;94936.28;4990048;28;20058;-76
2022/08/17 10:16:54;;;;;;;1999.90;999.90;;;;;;;31.15;30.57;94935.16;4988543;28;20036;-76
2022/08/17 10:19:41;;;;;;;1999.90;999.90;;;;;;;31.51;30.11;94931.25;4988762;28;20031;-77
2022/08/17 10:28:00;;;;;;;1999.90;999.90;;;;;;;31.94;29.27;94929.75;4998547;28;20128;-76
2022/08/17 10:30:31;;;;;;;1999.90;999.90;;;;;;;31.98;29.22;94920.16;4984038;28;20062;-76
2022/08/17 10:33:01;;;;;;;1999.90;999.90;;;;;;;31.39;30.17;94916.34;4989663;28;20027;-75
2022/08/17 10:35:35;;;;;;;1999.90;999.90;;;;;;;31.37;29.89;94927.00;4984008;28;20035;-75
2022/08/17 10:38:24;;;;;;;1999.90;999.90;;;;;;;31.57;29.22;94919.22;4988080;28;20030;-75
2022/08/17 10:41:03;;;;;;;1999.90;999.90;;;;;;;30.39;31.30;94927.69;5009469;28;20038;-76
2022/08/17 10:43:33;;;;;;;1999.90;999.90;;;;;;;31.40;29.90;94923.38;4985157;28;20038;-76
2022/08/17 10:46:18;;;;;;;1999.90;999.90;;;;;;;32.04;28.46;94934.13;4977050;28;20479;-76
2022/08/17 10:48:44;;;;;;;1999.90;999.90;;;;;;;31.51;29.17;94936.75;4988676;28;20027;-76
2022/08/17 10:51:36;;;;;;;1999.90;999.90;;;;;;;32.22;28.27;94938.97;4988123;28;20025;-75
2022/08/17 10:54:04;;;;;;;1999.90;999.90;;;;;;;31.65;29.56;94932.75;4975262;28;20047;-76
2022/08/17 10:56:49;;;;;;;1999.90;999.90;;;;;;;32.68;27.78;94920.72;4971833;28;20027;-77
2022/08/17 10:59:33;;;;;;;1999.90;999.90;;;;;;;32.32;28.02;94927.56;4986629;28;20113;-76
2022/08/17 11:02:13;;;;;;;1999.90;999.90;;;;;;;32.72;27.42;94917.84;4983551;28;20069;-75
2022/08/17 11:04:56;;;;;;;1999.90;999.90;;;;;;;31.75;28.45;94935.13;4985399;28;20037;-76
2022/08/17 11:08:04;;;;;;;1999.90;999.90;;;;;;;31.86;28.35;94934.00;4982721;28;20034;-76
2022/08/17 11:11:11;;;;;;;1999.90;999.90;;;;;;;32.25;27.72;94932.59;4984767;28;20819;-77
2022/08/17 11:13:46;;;;;;;1999.90;999.90;;;;;;;32.38;27.95;94927.78;4989831;28;20551;-77
2022/08/17 11:16:46;;;;;;;1999.90;999.90;;;;;;;32.22;27.87;94933.47;4989491;28;20026;-78
2022/08/17 11:19:49;;;;;;;1999.90;999.90;;;;;;;32.16;27.71;94935.28;5021273;28;20120;-77
2022/08/17 11:22:28;;;;;;;1999.90;999.90;;;;;;;32.84;27.25;94928.75;4987308;28;20033;-72
2022/08/17 11:24:54;;;;;;;1999.90;999.90;;;;;;;31.76;28.09;94925.66;4985052;28;20022;-74
2022/08/17 11:27:32;;;;;;;1999.90;999.90;;;;;;;31.67;28.25;94927.56;4987416;28;20031;-72
2022/08/17 11:30:12;;;;;;;1999.90;999.90;;;;;;;31.48;28.96;94918.38;4982064;28;20018;-73
2022/08/17 11:32:49;;;;;;;1999.90;999.90;;;;;;;31.41;29.00;94924.13;4988373;28;20062;-73
2022/08/17 11:35:20;;;;;;;1999.90;999.90;;;;;;;31.53;28.33;94929.59;4986711;28;20117;-73
2022/08/17 11:38:17;;;;;;;1999.90;999.90;;;;;;;31.48;28.18;94927.41;4986432;28;20030;-73
2022/08/17 11:41:06;;;;;;;1999.90;999.90;;;;;;;31.73;28.00;94925.75;4985124;28;20038;-74
2022/08/17 11:44:14;;;;;;;1999.90;999.90;;;;;;;31.61;27.93;94918.34;4987562;28;20109;-74
2022/08/17 11:53:05;;;;;;;1999.90;999.90;;;;;;;32.11;26.50;94935.84;4988694;28;20518;-71